Inarajan, Guam
Current Conditions -  °F | °C
As of 6:54 PM on Sunday 26 Oct 2014 (Local Time) from PGUM Reporting Station
Scattered Clouds Scattered Clouds  
Wind Chill: 80°   Ceiling: Unl
Heat Index: 86°   Visibility: 10mi
Dew Point: 77°   Wind: 6mph
Humidity: 90%   Direction: 90°E
Pressure: 29.85"   Gusts: NA
Location:  13.28°N, 144.74°E
Report Text: PGUM 260854Z 09005KT 10SM FEW018 SCT120 27/25 A2985 RMK AO2 SLP099 60000 T02670250 53005 $
Loading
Personal Weather Stations






























Interactive Weather Map
Tropical Storm Tracking
New forecast layout! Learn more

10-Day Weather Forecast

Advertisements
Track Severe Weather on mobile